sensor_id;sensor_type;location;lat;lon;timestamp;P1;durP1;ratioP1;P2;durP2;ratioP2
3131;SDS011;62090;52.330;9.104;2022-09-16T00:00:47;4.67;;;1.20;;
3131;SDS011;62090;52.330;9.104;2022-09-16T00:03:17;9.77;;;1.50;;
3131;SDS011;62090;52.330;9.104;2022-09-16T00:05:50;3.70;;;1.10;;
3131;SDS011;62090;52.330;9.104;2022-09-16T00:08:21;7.70;;;1.63;;
3131;SDS011;62090;52.330;9.104;2022-09-16T00:10:51;6.47;;;1.40;;
3131;SDS011;62090;52.330;9.104;2022-09-16T00:13:21;7.30;;;1.43;;
3131;SDS011;62090;52.330;9.104;2022-09-16T00:15:50;9.50;;;1.80;;
3131;SDS011;62090;52.330;9.104;2022-09-16T00:18:20;5.43;;;1.30;;
3131;SDS011;62090;52.330;9.104;2022-09-16T00:20:53;7.63;;;1.20;;
3131;SDS011;62090;52.330;9.104;2022-09-16T00:23:22;3.63;;;1.17;;
3131;SDS011;62090;52.330;9.104;2022-09-16T00:25:53;5.17;;;1.50;;
3131;SDS011;62090;52.330;9.104;2022-09-16T00:28:23;10.23;;;1.80;;
3131;SDS011;62090;52.330;9.104;2022-09-16T00:30:53;7.47;;;1.77;;
3131;SDS011;62090;52.330;9.104;2022-09-16T00:33:26;5.90;;;1.70;;
3131;SDS011;62090;52.330;9.104;2022-09-16T00:36:06;6.60;;;1.80;;
3131;SDS011;62090;52.330;9.104;2022-09-16T00:38:38;4.83;;;1.70;;
3131;SDS011;62090;52.330;9.104;2022-09-16T00:41:11;12.20;;;2.37;;
3131;SDS011;62090;52.330;9.104;2022-09-16T00:43:48;10.60;;;1.80;;
3131;SDS011;62090;52.330;9.104;2022-09-16T00:46:20;5.40;;;1.57;;
3131;SDS011;62090;52.330;9.104;2022-09-16T00:48:54;6.53;;;1.57;;
3131;SDS011;62090;52.330;9.104;2022-09-16T00:51:27;8.63;;;1.30;;
3131;SDS011;62090;52.330;9.104;2022-09-16T00:53:58;5.80;;;1.63;;
3131;SDS011;62090;52.330;9.104;2022-09-16T00:56:36;4.03;;;1.60;;
3131;SDS011;62090;52.330;9.104;2022-09-16T00:59:09;6.10;;;1.87;;
3131;SDS011;62090;52.330;9.104;2022-09-16T01:01:43;7.87;;;1.60;;
3131;SDS011;62090;52.330;9.104;2022-09-16T01:04:15;4.60;;;1.50;;
3131;SDS011;62090;52.330;9.104;2022-09-16T01:06:50;10.87;;;1.70;;
3131;SDS011;62090;52.330;9.104;2022-09-16T01:09:21;8.97;;;1.60;;
3131;SDS011;62090;52.330;9.104;2022-09-16T01:11:53;4.70;;;1.60;;
3131;SDS011;62090;52.330;9.104;2022-09-16T01:14:23;7.20;;;2.20;;
3131;SDS011;62090;52.330;9.104;2022-09-16T01:17:09;8.40;;;2.07;;
3131;SDS011;62090;52.330;9.104;2022-09-16T01:19:58;7.33;;;1.50;;
3131;SDS011;62090;52.330;9.104;2022-09-16T01:22:51;3.73;;;1.40;;
3131;SDS011;62090;52.330;9.104;2022-09-16T01:25:43;8.37;;;2.00;;
3131;SDS011;62090;52.330;9.104;2022-09-16T01:31:26;5.13;;;1.83;;
3131;SDS011;62090;52.330;9.104;2022-09-16T01:34:09;12.23;;;2.00;;
3131;SDS011;62090;52.330;9.104;2022-09-16T01:36:47;10.40;;;1.87;;
3131;SDS011;62090;52.330;9.104;2022-09-16T01:39:26;9.20;;;1.63;;
3131;SDS011;62090;52.330;9.104;2022-09-16T01:42:09;4.20;;;1.50;;
3131;SDS011;62090;52.330;9.104;2022-09-16T01:44:51;7.77;;;1.93;;
3131;SDS011;62090;52.330;9.104;2022-09-16T01:47:33;9.37;;;2.30;;
3131;SDS011;62090;52.330;9.104;2022-09-16T01:50:08;7.90;;;1.83;;
3131;SDS011;62090;52.330;9.104;2022-09-16T01:52:48;11.93;;;2.20;;
3131;SDS011;62090;52.330;9.104;2022-09-16T01:55:27;8.63;;;1.60;;
3131;SDS011;62090;52.330;9.104;2022-09-16T01:58:02;5.57;;;1.60;;
3131;SDS011;62090;52.330;9.104;2022-09-16T02:00:38;4.50;;;1.70;;
3131;SDS011;62090;52.330;9.104;2022-09-16T02:03:14;9.00;;;1.70;;
3131;SDS011;62090;52.330;9.104;2022-09-16T02:05:49;9.13;;;1.90;;
3131;SDS011;62090;52.330;9.104;2022-09-16T02:08:26;5.80;;;1.60;;
3131;SDS011;62090;52.330;9.104;2022-09-16T02:11:12;9.27;;;2.03;;
3131;SDS011;62090;52.330;9.104;2022-09-16T02:13:44;10.40;;;2.10;;
3131;SDS011;62090;52.330;9.104;2022-09-16T02:16:19;8.63;;;2.20;;
3131;SDS011;62090;52.330;9.104;2022-09-16T02:18:55;7.27;;;2.30;;
3131;SDS011;62090;52.330;9.104;2022-09-16T02:21:29;9.23;;;2.20;;
3131;SDS011;62090;52.330;9.104;2022-09-16T02:24:02;6.40;;;2.00;;
3131;SDS011;62090;52.330;9.104;2022-09-16T02:26:36;3.80;;;1.57;;
3131;SDS011;62090;52.330;9.104;2022-09-16T02:29:10;7.10;;;1.83;;
3131;SDS011;62090;52.330;9.104;2022-09-16T02:31:44;7.00;;;1.87;;
3131;SDS011;62090;52.330;9.104;2022-09-16T02:34:24;7.23;;;1.80;;
3131;SDS011;62090;52.330;9.104;2022-09-16T02:36:59;8.33;;;2.17;;
3131;SDS011;62090;52.330;9.104;2022-09-16T02:39:35;9.23;;;2.00;;
3131;SDS011;62090;52.330;9.104;2022-09-16T02:42:10;7.00;;;1.90;;
3131;SDS011;62090;52.330;9.104;2022-09-16T02:44:39;7.40;;;2.20;;
3131;SDS011;62090;52.330;9.104;2022-09-16T02:47:10;6.20;;;2.17;;
3131;SDS011;62090;52.330;9.104;2022-09-16T02:49:50;6.17;;;1.80;;
3131;SDS011;62090;52.330;9.104;2022-09-16T02:52:23;8.20;;;2.37;;
3131;SDS011;62090;52.330;9.104;2022-09-16T02:55:03;10.37;;;2.50;;
3131;SDS011;62090;52.330;9.104;2022-09-16T02:57:41;11.43;;;2.33;;
3131;SDS011;62090;52.330;9.104;2022-09-16T03:00:11;6.67;;;2.30;;
3131;SDS011;62090;52.330;9.104;2022-09-16T03:02:41;13.97;;;2.00;;
3131;SDS011;62090;52.330;9.104;2022-09-16T03:05:13;8.17;;;2.70;;
3131;SDS011;62090;52.330;9.104;2022-09-16T03:07:43;7.87;;;2.10;;
3131;SDS011;62090;52.330;9.104;2022-09-16T03:10:13;6.90;;;2.30;;
3131;SDS011;62090;52.330;9.104;2022-09-16T03:12:44;7.73;;;2.37;;
3131;SDS011;62090;52.330;9.104;2022-09-16T03:15:35;7.33;;;2.20;;
3131;SDS011;62090;52.330;9.104;2022-09-16T03:18:17;6.07;;;2.33;;
3131;SDS011;62090;52.330;9.104;2022-09-16T03:21:07;10.07;;;2.60;;
3131;SDS011;62090;52.330;9.104;2022-09-16T03:23:47;10.67;;;2.33;;
3131;SDS011;62090;52.330;9.104;2022-09-16T03:26:25;5.27;;;2.17;;
3131;SDS011;62090;52.330;9.104;2022-09-16T03:29:04;9.03;;;2.57;;
3131;SDS011;62090;52.330;9.104;2022-09-16T03:31:44;10.43;;;2.43;;
3131;SDS011;62090;52.330;9.104;2022-09-16T03:34:17;5.60;;;2.20;;
3131;SDS011;62090;52.330;9.104;2022-09-16T03:36:55;15.77;;;2.73;;
3131;SDS011;62090;52.330;9.104;2022-09-16T03:39:29;10.70;;;3.07;;
3131;SDS011;62090;52.330;9.104;2022-09-16T03:42:01;10.13;;;3.17;;
3131;SDS011;62090;52.330;9.104;2022-09-16T03:44:33;10.53;;;2.87;;
3131;SDS011;62090;52.330;9.104;2022-09-16T03:47:05;8.63;;;2.77;;
3131;SDS011;62090;52.330;9.104;2022-09-16T03:49:36;14.80;;;2.67;;
3131;SDS011;62090;52.330;9.104;2022-09-16T03:52:09;6.67;;;2.40;;
3131;SDS011;62090;52.330;9.104;2022-09-16T03:54:39;7.73;;;2.57;;
3131;SDS011;62090;52.330;9.104;2022-09-16T03:57:09;7.60;;;2.57;;
3131;SDS011;62090;52.330;9.104;2022-09-16T03:59:38;4.90;;;2.60;;
3131;SDS011;62090;52.330;9.104;2022-09-16T04:02:08;7.97;;;2.80;;
3131;SDS011;62090;52.330;9.104;2022-09-16T04:04:38;3.90;;;2.80;;
3131;SDS011;62090;52.330;9.104;2022-09-16T04:07:11;7.93;;;2.97;;
3131;SDS011;62090;52.330;9.104;2022-09-16T04:09:40;8.93;;;2.63;;
3131;SDS011;62090;52.330;9.104;2022-09-16T04:12:10;6.93;;;2.70;;
3131;SDS011;62090;52.330;9.104;2022-09-16T04:14:40;6.40;;;2.40;;
3131;SDS011;62090;52.330;9.104;2022-09-16T04:17:09;11.20;;;2.93;;
3131;SDS011;62090;52.330;9.104;2022-09-16T04:19:39;11.20;;;3.50;;
3131;SDS011;62090;52.330;9.104;2022-09-16T04:22:11;13.97;;;3.40;;
3131;SDS011;62090;52.330;9.104;2022-09-16T04:24:41;5.53;;;2.73;;
3131;SDS011;62090;52.330;9.104;2022-09-16T04:27:11;9.27;;;2.60;;
3131;SDS011;62090;52.330;9.104;2022-09-16T04:29:40;7.43;;;2.43;;
3131;SDS011;62090;52.330;9.104;2022-09-16T04:32:10;5.93;;;2.30;;
3131;SDS011;62090;52.330;9.104;2022-09-16T04:34:39;6.43;;;2.80;;
3131;SDS011;62090;52.330;9.104;2022-09-16T04:37:12;5.60;;;3.23;;
3131;SDS011;62090;52.330;9.104;2022-09-16T04:39:41;7.53;;;2.90;;
3131;SDS011;62090;52.330;9.104;2022-09-16T04:42:12;6.27;;;2.53;;
3131;SDS011;62090;52.330;9.104;2022-09-16T04:44:41;5.77;;;2.60;;
3131;SDS011;62090;52.330;9.104;2022-09-16T04:47:11;7.63;;;2.70;;
3131;SDS011;62090;52.330;9.104;2022-09-16T04:49:41;4.43;;;2.90;;
3131;SDS011;62090;52.330;9.104;2022-09-16T04:52:13;7.20;;;3.27;;
3131;SDS011;62090;52.330;9.104;2022-09-16T04:54:43;11.87;;;3.60;;
3131;SDS011;62090;52.330;9.104;2022-09-16T04:57:12;7.27;;;3.70;;
3131;SDS011;62090;52.330;9.104;2022-09-16T04:59:42;6.10;;;3.30;;
3131;SDS011;62090;52.330;9.104;2022-09-16T05:02:12;5.73;;;3.60;;
3131;SDS011;62090;52.330;9.104;2022-09-16T05:04:41;7.07;;;3.83;;
3131;SDS011;62090;52.330;9.104;2022-09-16T05:07:14;7.37;;;3.30;;
3131;SDS011;62090;52.330;9.104;2022-09-16T05:09:43;9.97;;;3.07;;
3131;SDS011;62090;52.330;9.104;2022-09-16T05:12:13;11.43;;;3.40;;
3131;SDS011;62090;52.330;9.104;2022-09-16T05:14:43;5.80;;;3.00;;
3131;SDS011;62090;52.330;9.104;2022-09-16T05:17:12;9.43;;;2.50;;
3131;SDS011;62090;52.330;9.104;2022-09-16T05:20:02;6.97;;;2.70;;
3131;SDS011;62090;52.330;9.104;2022-09-16T05:22:35;5.77;;;2.30;;
3131;SDS011;62090;52.330;9.104;2022-09-16T05:25:05;4.70;;;2.30;;
3131;SDS011;62090;52.330;9.104;2022-09-16T05:27:35;7.50;;;2.50;;
3131;SDS011;62090;52.330;9.104;2022-09-16T05:30:06;7.57;;;2.53;;
3131;SDS011;62090;52.330;9.104;2022-09-16T05:32:36;6.77;;;1.70;;
3131;SDS011;62090;52.330;9.104;2022-09-16T05:35:06;8.33;;;2.00;;
3131;SDS011;62090;52.330;9.104;2022-09-16T05:37:40;6.43;;;2.10;;
3131;SDS011;62090;52.330;9.104;2022-09-16T05:40:09;5.17;;;1.80;;
3131;SDS011;62090;52.330;9.104;2022-09-16T05:42:39;6.30;;;1.87;;
3131;SDS011;62090;52.330;9.104;2022-09-16T05:45:09;8.50;;;1.70;;
3131;SDS011;62090;52.330;9.104;2022-09-16T05:47:45;3.47;;;1.40;;
3131;SDS011;62090;52.330;9.104;2022-09-16T05:50:15;9.30;;;2.13;;
3131;SDS011;62090;52.330;9.104;2022-09-16T05:52:48;3.97;;;1.67;;
3131;SDS011;62090;52.330;9.104;2022-09-16T05:55:17;21.07;;;2.27;;
3131;SDS011;62090;52.330;9.104;2022-09-16T05:57:47;6.60;;;1.73;;
3131;SDS011;62090;52.330;9.104;2022-09-16T06:00:17;7.13;;;1.70;;
3131;SDS011;62090;52.330;9.104;2022-09-16T06:02:47;14.20;;;1.60;;
3131;SDS011;62090;52.330;9.104;2022-09-16T06:05:16;6.90;;;1.40;;
3131;SDS011;62090;52.330;9.104;2022-09-16T06:07:50;5.77;;;1.33;;
3131;SDS011;62090;52.330;9.104;2022-09-16T06:10:24;7.30;;;1.53;;
3131;SDS011;62090;52.330;9.104;2022-09-16T06:12:54;2.90;;;1.50;;
3131;SDS011;62090;52.330;9.104;2022-09-16T06:15:25;10.27;;;1.30;;
3131;SDS011;62090;52.330;9.104;2022-09-16T06:17:54;6.80;;;1.83;;
3131;SDS011;62090;52.330;9.104;2022-09-16T06:20:31;7.00;;;1.73;;
3131;SDS011;62090;52.330;9.104;2022-09-16T06:23:03;4.60;;;1.20;;
3131;SDS011;62090;52.330;9.104;2022-09-16T06:25:33;6.60;;;1.37;;
3131;SDS011;62090;52.330;9.104;2022-09-16T06:28:02;5.90;;;1.50;;
3131;SDS011;62090;52.330;9.104;2022-09-16T06:30:33;7.87;;;1.10;;
3131;SDS011;62090;52.330;9.104;2022-09-16T06:33:02;3.43;;;1.17;;
3131;SDS011;62090;52.330;9.104;2022-09-16T06:35:33;3.90;;;1.60;;
3131;SDS011;62090;52.330;9.104;2022-09-16T06:38:06;3.70;;;1.20;;
3131;SDS011;62090;52.330;9.104;2022-09-16T06:40:35;4.33;;;1.50;;
3131;SDS011;62090;52.330;9.104;2022-09-16T06:43:05;3.87;;;1.30;;
3131;SDS011;62090;52.330;9.104;2022-09-16T06:45:35;4.43;;;1.10;;
3131;SDS011;62090;52.330;9.104;2022-09-16T06:48:05;6.93;;;1.57;;
3131;SDS011;62090;52.330;9.104;2022-09-16T06:50:35;3.60;;;1.50;;
3131;SDS011;62090;52.330;9.104;2022-09-16T06:53:07;6.60;;;1.37;;
3131;SDS011;62090;52.330;9.104;2022-09-16T06:55:37;10.77;;;2.17;;
3131;SDS011;62090;52.330;9.104;2022-09-16T06:58:06;9.43;;;1.50;;
3131;SDS011;62090;52.330;9.104;2022-09-16T07:00:36;9.33;;;2.43;;
3131;SDS011;62090;52.330;9.104;2022-09-16T07:03:06;6.03;;;1.60;;
3131;SDS011;62090;52.330;9.104;2022-09-16T07:05:36;11.03;;;1.73;;
3131;SDS011;62090;52.330;9.104;2022-09-16T07:08:09;6.30;;;1.93;;
3131;SDS011;62090;52.330;9.104;2022-09-16T07:10:38;5.33;;;1.57;;
3131;SDS011;62090;52.330;9.104;2022-09-16T07:13:08;5.80;;;1.60;;
3131;SDS011;62090;52.330;9.104;2022-09-16T07:15:38;11.70;;;2.60;;
3131;SDS011;62090;52.330;9.104;2022-09-16T07:18:27;7.43;;;1.73;;
3131;SDS011;62090;52.330;9.104;2022-09-16T07:21:01;2.00;;;1.10;;
3131;SDS011;62090;52.330;9.104;2022-09-16T07:23:35;3.27;;;1.13;;
3131;SDS011;62090;52.330;9.104;2022-09-16T07:26:06;12.07;;;1.53;;
3131;SDS011;62090;52.330;9.104;2022-09-16T07:28:38;4.37;;;1.27;;
3131;SDS011;62090;52.330;9.104;2022-09-16T07:31:09;6.10;;;1.50;;
3131;SDS011;62090;52.330;9.104;2022-09-16T07:33:41;6.83;;;1.90;;
3131;SDS011;62090;52.330;9.104;2022-09-16T07:36:14;7.30;;;2.30;;
3131;SDS011;62090;52.330;9.104;2022-09-16T07:38:48;7.50;;;1.77;;
3131;SDS011;62090;52.330;9.104;2022-09-16T07:41:19;3.70;;;1.30;;
3131;SDS011;62090;52.330;9.104;2022-09-16T07:43:52;9.60;;;1.53;;
3131;SDS011;62090;52.330;9.104;2022-09-16T07:46:24;6.63;;;1.43;;
3131;SDS011;62090;52.330;9.104;2022-09-16T07:48:56;14.07;;;2.30;;
3131;SDS011;62090;52.330;9.104;2022-09-16T07:51:28;3.97;;;1.30;;
3131;SDS011;62090;52.330;9.104;2022-09-16T07:54:01;5.17;;;2.13;;
3131;SDS011;62090;52.330;9.104;2022-09-16T07:56:33;7.57;;;1.30;;
3131;SDS011;62090;52.330;9.104;2022-09-16T07:59:06;11.70;;;1.60;;
3131;SDS011;62090;52.330;9.104;2022-09-16T08:01:44;12.93;;;2.10;;
3131;SDS011;62090;52.330;9.104;2022-09-16T08:04:15;9.57;;;1.40;;
3131;SDS011;62090;52.330;9.104;2022-09-16T08:06:46;7.10;;;1.77;;
3131;SDS011;62090;52.330;9.104;2022-09-16T08:09:19;5.40;;;1.50;;
3131;SDS011;62090;52.330;9.104;2022-09-16T08:12:08;9.90;;;1.80;;
3131;SDS011;62090;52.330;9.104;2022-09-16T08:14:40;7.93;;;1.60;;
3131;SDS011;62090;52.330;9.104;2022-09-16T08:17:09;8.07;;;2.00;;
3131;SDS011;62090;52.330;9.104;2022-09-16T08:19:40;4.97;;;1.40;;
3131;SDS011;62090;52.330;9.104;2022-09-16T08:22:10;7.00;;;1.77;;
3131;SDS011;62090;52.330;9.104;2022-09-16T08:24:42;10.27;;;1.67;;
3131;SDS011;62090;52.330;9.104;2022-09-16T08:27:12;6.20;;;1.77;;
3131;SDS011;62090;52.330;9.104;2022-09-16T08:29:42;12.90;;;1.77;;
3131;SDS011;62090;52.330;9.104;2022-09-16T08:32:12;5.60;;;1.63;;
3131;SDS011;62090;52.330;9.104;2022-09-16T08:34:45;16.87;;;1.97;;
3131;SDS011;62090;52.330;9.104;2022-09-16T08:37:15;9.40;;;2.30;;
3131;SDS011;62090;52.330;9.104;2022-09-16T08:39:48;18.93;;;2.00;;
3131;SDS011;62090;52.330;9.104;2022-09-16T08:42:28;16.40;;;2.33;;
3131;SDS011;62090;52.330;9.104;2022-09-16T08:45:05;10.23;;;2.43;;
3131;SDS011;62090;52.330;9.104;2022-09-16T08:47:57;16.67;;;2.00;;
3131;SDS011;62090;52.330;9.104;2022-09-16T08:50:39;11.67;;;2.03;;
3131;SDS011;62090;52.330;9.104;2022-09-16T08:53:15;10.97;;;2.20;;
3131;SDS011;62090;52.330;9.104;2022-09-16T08:55:50;9.43;;;2.23;;
3131;SDS011;62090;52.330;9.104;2022-09-16T08:58:22;7.03;;;2.20;;
3131;SDS011;62090;52.330;9.104;2022-09-16T09:00:55;5.43;;;1.67;;
3131;SDS011;62090;52.330;9.104;2022-09-16T09:03:32;11.93;;;1.60;;
3131;SDS011;62090;52.330;9.104;2022-09-16T09:06:11;8.23;;;2.07;;
3131;SDS011;62090;52.330;9.104;2022-09-16T09:08:52;11.13;;;2.30;;
3131;SDS011;62090;52.330;9.104;2022-09-16T09:11:35;7.17;;;1.93;;
3131;SDS011;62090;52.330;9.104;2022-09-16T09:14:23;6.20;;;1.97;;
3131;SDS011;62090;52.330;9.104;2022-09-16T09:17:02;6.33;;;1.90;;
3131;SDS011;62090;52.330;9.104;2022-09-16T09:19:44;9.50;;;2.60;;
3131;SDS011;62090;52.330;9.104;2022-09-16T09:22:40;13.73;;;2.40;;
3131;SDS011;62090;52.330;9.104;2022-09-16T09:25:21;10.80;;;2.03;;
3131;SDS011;62090;52.330;9.104;2022-09-16T09:28:07;10.97;;;2.07;;
3131;SDS011;62090;52.330;9.104;2022-09-16T09:30:50;11.90;;;2.00;;
3131;SDS011;62090;52.330;9.104;2022-09-16T09:33:41;10.57;;;2.23;;
3131;SDS011;62090;52.330;9.104;2022-09-16T09:36:26;7.90;;;1.47;;
3131;SDS011;62090;52.330;9.104;2022-09-16T09:42:14;11.63;;;2.10;;
3131;SDS011;62090;52.330;9.104;2022-09-16T09:44:52;10.43;;;2.40;;
3131;SDS011;62090;52.330;9.104;2022-09-16T09:47:31;17.00;;;2.10;;
3131;SDS011;62090;52.330;9.104;2022-09-16T09:50:12;16.40;;;2.63;;
3131;SDS011;62090;52.330;9.104;2022-09-16T09:52:48;8.83;;;2.03;;
3131;SDS011;62090;52.330;9.104;2022-09-16T09:55:24;8.00;;;2.23;;
3131;SDS011;62090;52.330;9.104;2022-09-16T10:00:50;5.83;;;1.30;;
3131;SDS011;62090;52.330;9.104;2022-09-16T10:03:21;14.30;;;1.70;;
3131;SDS011;62090;52.330;9.104;2022-09-16T10:05:54;6.83;;;1.57;;
3131;SDS011;62090;52.330;9.104;2022-09-16T10:08:26;9.97;;;2.50;;
3131;SDS011;62090;52.330;9.104;2022-09-16T10:10:59;16.53;;;2.60;;
3131;SDS011;62090;52.330;9.104;2022-09-16T10:13:33;14.73;;;1.93;;
3131;SDS011;62090;52.330;9.104;2022-09-16T10:16:10;10.03;;;2.20;;
3131;SDS011;62090;52.330;9.104;2022-09-16T10:18:52;5.80;;;1.83;;
3131;SDS011;62090;52.330;9.104;2022-09-16T10:21:35;7.90;;;1.40;;
3131;SDS011;62090;52.330;9.104;2022-09-16T10:24:23;15.70;;;2.63;;
3131;SDS011;62090;52.330;9.104;2022-09-16T10:26:56;8.43;;;1.47;;
3131;SDS011;62090;52.330;9.104;2022-09-16T10:29:27;8.83;;;2.00;;
3131;SDS011;62090;52.330;9.104;2022-09-16T10:32:02;11.90;;;2.27;;
3131;SDS011;62090;52.330;9.104;2022-09-16T10:34:36;8.73;;;2.03;;
3131;SDS011;62090;52.330;9.104;2022-09-16T10:37:14;10.90;;;1.57;;
3131;SDS011;62090;52.330;9.104;2022-09-16T10:39:49;7.23;;;1.53;;
3131;SDS011;62090;52.330;9.104;2022-09-16T10:42:23;12.20;;;1.53;;
3131;SDS011;62090;52.330;9.104;2022-09-16T10:44:54;9.87;;;1.97;;
3131;SDS011;62090;52.330;9.104;2022-09-16T10:47:34;6.33;;;2.03;;
3131;SDS011;62090;52.330;9.104;2022-09-16T10:50:06;9.90;;;1.90;;
3131;SDS011;62090;52.330;9.104;2022-09-16T10:52:39;7.70;;;1.90;;
3131;SDS011;62090;52.330;9.104;2022-09-16T10:55:23;14.07;;;2.30;;
3131;SDS011;62090;52.330;9.104;2022-09-16T10:58:07;10.93;;;1.67;;
3131;SDS011;62090;52.330;9.104;2022-09-16T11:00:46;14.00;;;1.87;;
3131;SDS011;62090;52.330;9.104;2022-09-16T11:03:34;7.43;;;1.90;;
3131;SDS011;62090;52.330;9.104;2022-09-16T11:06:35;17.63;;;2.20;;
3131;SDS011;62090;52.330;9.104;2022-09-16T11:09:13;6.97;;;1.77;;
3131;SDS011;62090;52.330;9.104;2022-09-16T11:11:54;17.80;;;1.87;;
3131;SDS011;62090;52.330;9.104;2022-09-16T11:14:40;10.70;;;2.60;;
3131;SDS011;62090;52.330;9.104;2022-09-16T11:17:19;13.43;;;2.20;;
3131;SDS011;62090;52.330;9.104;2022-09-16T11:23:12;10.20;;;2.50;;
3131;SDS011;62090;52.330;9.104;2022-09-16T11:25:53;12.47;;;2.13;;
3131;SDS011;62090;52.330;9.104;2022-09-16T11:28:36;10.90;;;2.10;;
3131;SDS011;62090;52.330;9.104;2022-09-16T11:31:18;12.00;;;1.93;;
3131;SDS011;62090;52.330;9.104;2022-09-16T11:34:00;8.53;;;2.13;;
3131;SDS011;62090;52.330;9.104;2022-09-16T11:36:49;9.53;;;2.30;;
3131;SDS011;62090;52.330;9.104;2022-09-16T11:39:28;11.40;;;2.30;;
3131;SDS011;62090;52.330;9.104;2022-09-16T11:42:11;9.67;;;2.10;;
3131;SDS011;62090;52.330;9.104;2022-09-16T11:44:49;10.53;;;2.60;;
3131;SDS011;62090;52.330;9.104;2022-09-16T11:47:32;7.07;;;1.60;;
3131;SDS011;62090;52.330;9.104;2022-09-16T11:50:21;11.00;;;2.27;;
3131;SDS011;62090;52.330;9.104;2022-09-16T11:53:28;8.40;;;1.60;;
3131;SDS011;62090;52.330;9.104;2022-09-16T11:56:13;7.03;;;1.40;;
3131;SDS011;62090;52.330;9.104;2022-09-16T11:58:49;5.93;;;1.70;;
3131;SDS011;62090;52.330;9.104;2022-09-16T12:01:25;6.03;;;1.43;;
3131;SDS011;62090;52.330;9.104;2022-09-16T12:03:59;3.37;;;1.10;;
3131;SDS011;62090;52.330;9.104;2022-09-16T12:06:40;4.80;;;1.30;;
3131;SDS011;62090;52.330;9.104;2022-09-16T12:09:25;12.27;;;1.70;;
3131;SDS011;62090;52.330;9.104;2022-09-16T12:12:06;7.53;;;1.60;;
3131;SDS011;62090;52.330;9.104;2022-09-16T12:14:41;7.30;;;1.63;;
3131;SDS011;62090;52.330;9.104;2022-09-16T12:17:16;8.77;;;1.77;;
3131;SDS011;62090;52.330;9.104;2022-09-16T12:19:50;6.70;;;1.53;;
3131;SDS011;62090;52.330;9.104;2022-09-16T12:22:27;11.23;;;1.90;;
3131;SDS011;62090;52.330;9.104;2022-09-16T12:25:05;7.00;;;1.57;;
3131;SDS011;62090;52.330;9.104;2022-09-16T12:27:42;6.10;;;1.97;;
3131;SDS011;62090;52.330;9.104;2022-09-16T12:30:22;7.90;;;1.60;;
3131;SDS011;62090;52.330;9.104;2022-09-16T12:32:59;10.00;;;1.73;;
3131;SDS011;62090;52.330;9.104;2022-09-16T12:35:34;10.40;;;2.03;;
3131;SDS011;62090;52.330;9.104;2022-09-16T12:38:14;4.77;;;1.90;;
3131;SDS011;62090;52.330;9.104;2022-09-16T12:41:07;9.17;;;1.80;;
3131;SDS011;62090;52.330;9.104;2022-09-16T12:44:00;11.17;;;1.90;;
3131;SDS011;62090;52.330;9.104;2022-09-16T12:50:15;7.17;;;2.10;;
3131;SDS011;62090;52.330;9.104;2022-09-16T12:53:08;8.00;;;1.50;;
3131;SDS011;62090;52.330;9.104;2022-09-16T12:56:19;8.20;;;1.80;;
3131;SDS011;62090;52.330;9.104;2022-09-16T12:59:17;7.73;;;1.40;;
3131;SDS011;62090;52.330;9.104;2022-09-16T13:02:09;7.03;;;1.93;;
3131;SDS011;62090;52.330;9.104;2022-09-16T13:04:48;3.93;;;1.20;;
3131;SDS011;62090;52.330;9.104;2022-09-16T13:07:22;10.37;;;1.67;;
3131;SDS011;62090;52.330;9.104;2022-09-16T13:09:59;6.93;;;1.63;;
3131;SDS011;62090;52.330;9.104;2022-09-16T13:12:35;19.97;;;2.73;;
3131;SDS011;62090;52.330;9.104;2022-09-16T13:16:28;13.77;;;2.40;;
3131;SDS011;62090;52.330;9.104;2022-09-16T13:19:07;5.20;;;1.67;;
3131;SDS011;62090;52.330;9.104;2022-09-16T13:25:05;4.83;;;1.50;;
3131;SDS011;62090;52.330;9.104;2022-09-16T13:27:51;10.70;;;1.60;;
3131;SDS011;62090;52.330;9.104;2022-09-16T13:30:30;5.77;;;1.27;;
3131;SDS011;62090;52.330;9.104;2022-09-16T13:33:27;7.23;;;1.67;;
3131;SDS011;62090;52.330;9.104;2022-09-16T13:36:03;9.93;;;1.53;;
3131;SDS011;62090;52.330;9.104;2022-09-16T13:38:44;4.43;;;1.60;;
3131;SDS011;62090;52.330;9.104;2022-09-16T13:41:28;15.10;;;1.50;;
3131;SDS011;62090;52.330;9.104;2022-09-16T13:44:02;8.20;;;1.77;;
3131;SDS011;62090;52.330;9.104;2022-09-16T13:46:53;7.17;;;1.50;;
3131;SDS011;62090;52.330;9.104;2022-09-16T13:49:29;9.40;;;1.93;;
3131;SDS011;62090;52.330;9.104;2022-09-16T13:52:07;7.63;;;1.77;;
3131;SDS011;62090;52.330;9.104;2022-09-16T13:54:40;12.53;;;1.60;;
3131;SDS011;62090;52.330;9.104;2022-09-16T13:57:41;12.13;;;2.63;;
3131;SDS011;62090;52.330;9.104;2022-09-16T14:00:23;15.43;;;2.80;;
3131;SDS011;62090;52.330;9.104;2022-09-16T14:06:09;8.73;;;1.80;;
3131;SDS011;62090;52.330;9.104;2022-09-16T14:08:59;7.70;;;1.97;;
3131;SDS011;62090;52.330;9.104;2022-09-16T14:11:37;5.50;;;1.27;;
3131;SDS011;62090;52.330;9.104;2022-09-16T14:14:16;15.23;;;2.20;;
3131;SDS011;62090;52.330;9.104;2022-09-16T14:17:15;5.00;;;1.77;;
3131;SDS011;62090;52.330;9.104;2022-09-16T14:19:51;5.63;;;1.57;;
3131;SDS011;62090;52.330;9.104;2022-09-16T14:22:28;5.20;;;1.60;;
3131;SDS011;62090;52.330;9.104;2022-09-16T14:25:01;9.23;;;2.77;;
3131;SDS011;62090;52.330;9.104;2022-09-16T14:27:50;11.03;;;2.80;;
3131;SDS011;62090;52.330;9.104;2022-09-16T14:30:23;8.93;;;1.90;;
3131;SDS011;62090;52.330;9.104;2022-09-16T14:32:52;11.53;;;2.00;;
3131;SDS011;62090;52.330;9.104;2022-09-16T14:35:23;11.73;;;2.03;;
3131;SDS011;62090;52.330;9.104;2022-09-16T14:37:57;13.90;;;2.10;;
3131;SDS011;62090;52.330;9.104;2022-09-16T14:40:36;9.57;;;1.97;;
3131;SDS011;62090;52.330;9.104;2022-09-16T14:43:11;3.90;;;1.43;;
3131;SDS011;62090;52.330;9.104;2022-09-16T14:45:47;7.23;;;1.60;;
3131;SDS011;62090;52.330;9.104;2022-09-16T14:48:27;6.13;;;1.70;;
3131;SDS011;62090;52.330;9.104;2022-09-16T14:51:02;4.37;;;1.20;;
3131;SDS011;62090;52.330;9.104;2022-09-16T14:53:41;6.10;;;1.33;;
3131;SDS011;62090;52.330;9.104;2022-09-16T14:56:38;6.17;;;1.60;;
3131;SDS011;62090;52.330;9.104;2022-09-16T14:59:09;9.37;;;1.30;;
3131;SDS011;62090;52.330;9.104;2022-09-16T15:01:41;7.93;;;1.87;;
3131;SDS011;62090;52.330;9.104;2022-09-16T15:04:13;10.17;;;1.80;;
3131;SDS011;62090;52.330;9.104;2022-09-16T15:06:47;6.97;;;1.80;;
3131;SDS011;62090;52.330;9.104;2022-09-16T15:09:24;8.13;;;1.50;;
3131;SDS011;62090;52.330;9.104;2022-09-16T15:12:05;12.40;;;1.80;;
3131;SDS011;62090;52.330;9.104;2022-09-16T15:14:51;7.10;;;1.70;;
3131;SDS011;62090;52.330;9.104;2022-09-16T15:17:22;6.90;;;1.50;;
3131;SDS011;62090;52.330;9.104;2022-09-16T15:19:55;4.77;;;1.50;;
3131;SDS011;62090;52.330;9.104;2022-09-16T15:22:26;4.53;;;1.17;;
3131;SDS011;62090;52.330;9.104;2022-09-16T15:24:58;7.90;;;1.30;;
3131;SDS011;62090;52.330;9.104;2022-09-16T15:27:28;10.63;;;1.60;;
3131;SDS011;62090;52.330;9.104;2022-09-16T15:29:59;8.23;;;1.73;;
3131;SDS011;62090;52.330;9.104;2022-09-16T15:32:31;7.60;;;1.60;;
3131;SDS011;62090;52.330;9.104;2022-09-16T15:35:18;7.43;;;1.30;;
3131;SDS011;62090;52.330;9.104;2022-09-16T15:37:51;14.40;;;1.40;;
3131;SDS011;62090;52.330;9.104;2022-09-16T15:40:32;8.57;;;1.73;;
3131;SDS011;62090;52.330;9.104;2022-09-16T15:43:12;10.13;;;1.70;;
3131;SDS011;62090;52.330;9.104;2022-09-16T15:45:55;11.73;;;1.50;;
3131;SDS011;62090;52.330;9.104;2022-09-16T15:48:29;5.43;;;1.67;;
3131;SDS011;62090;52.330;9.104;2022-09-16T15:51:05;5.97;;;1.70;;
3131;SDS011;62090;52.330;9.104;2022-09-16T15:53:42;12.50;;;2.07;;
3131;SDS011;62090;52.330;9.104;2022-09-16T15:56:19;5.63;;;1.53;;
3131;SDS011;62090;52.330;9.104;2022-09-16T15:58:53;9.73;;;1.73;;
3131;SDS011;62090;52.330;9.104;2022-09-16T16:01:34;7.37;;;1.53;;
3131;SDS011;62090;52.330;9.104;2022-09-16T16:04:09;9.90;;;1.63;;
3131;SDS011;62090;52.330;9.104;2022-09-16T16:06:44;14.87;;;2.60;;
3131;SDS011;62090;52.330;9.104;2022-09-16T16:09:27;12.70;;;2.00;;
3131;SDS011;62090;52.330;9.104;2022-09-16T16:12:06;12.20;;;2.03;;
3131;SDS011;62090;52.330;9.104;2022-09-16T16:14:38;13.40;;;2.20;;